Time;durP1;ratioP1;P1;durP2;ratioP2;P2;SDS_P1;SDS_P2;PMS_P1;PMS_P2;Temp;Humidity;BMP_temperature;BMP_pressure;BME280_temperature;BME280_humidity;BME280_pressure;Samples;Min_cycle;Max_cycle;Signal;HPM_P1;HPM_P2
2023/10/29 00:00:47;;;;;;;7.75;2.60;;;11.60;99.90;;;;;;5026767;28;20449;-66
2023/10/29 00:03:12;;;;;;;3.70;1.70;;;11.60;99.90;;;;;;5030266;28;20030;-68
2023/10/29 00:05:38;;;;;;;4.00;1.60;;;11.60;99.90;;;;;;5031508;28;20029;-67
2023/10/29 00:08:04;;;;;;;3.28;1.85;;;11.60;99.90;;;;;;5031871;28;20030;-66
2023/10/29 00:10:29;;;;;;;2.25;1.30;;;11.60;99.90;;;;;;5026982;28;20117;-67
2023/10/29 00:12:55;;;;;;;4.25;1.48;;;11.70;99.90;;;;;;5022945;28;20030;-67
2023/10/29 00:15:21;;;;;;;4.47;1.30;;;11.70;99.90;;;;;;5025126;28;20025;-68
2023/10/29 00:17:47;;;;;;;1.98;1.45;;;11.80;99.90;;;;;;5027175;28;20018;-67
2023/10/29 00:20:12;;;;;;;3.53;1.35;;;11.80;99.90;;;;;;5025506;28;20025;-67
2023/10/29 00:22:38;;;;;;;4.75;1.60;;;11.80;99.90;;;;;;5026726;28;20074;-66
2023/10/29 00:25:04;;;;;;;3.20;1.40;;;11.80;99.90;;;;;;5028962;28;20029;-67
2023/10/29 00:27:30;;;;;;;9.48;1.73;;;11.80;99.90;;;;;;5028455;28;20107;-67
2023/10/29 00:29:55;;;;;;;5.65;2.10;;;11.80;99.90;;;;;;5029146;28;21606;-67
2023/10/29 00:32:21;;;;;;;3.88;1.80;;;11.80;99.90;;;;;;5028475;28;20022;-68
2023/10/29 00:34:47;;;;;;;2.97;2.05;;;11.80;99.90;;;;;;5028077;28;20024;-66
2023/10/29 00:37:13;;;;;;;4.18;1.73;;;11.80;99.90;;;;;;5031774;28;20398;-67
2023/10/29 00:39:39;;;;;;;7.35;1.60;;;11.80;99.90;;;;;;5032041;28;20021;-68
2023/10/29 00:42:05;;;;;;;2.92;1.17;;;11.80;99.90;;;;;;5029254;28;20095;-67
2023/10/29 00:44:30;;;;;;;4.63;1.10;;;11.80;99.90;;;;;;5024876;28;20103;-67
2023/10/29 00:46:57;;;;;;;5.13;1.40;;;11.80;99.90;;;;;;5028255;28;20486;-66
2023/10/29 00:49:22;;;;;;;10.80;1.58;;;11.80;99.90;;;;;;5022230;28;20391;-67
2023/10/29 00:51:49;;;;;;;4.05;1.30;;;11.80;99.90;;;;;;5030953;28;20021;-67
2023/10/29 00:54:14;;;;;;;4.43;2.28;;;11.80;99.90;;;;;;5030276;28;20502;-67
2023/10/29 00:56:40;;;;;;;2.17;1.30;;;11.80;99.90;;;;;;5025657;28;20056;-66
2023/10/29 00:59:06;;;;;;;4.97;1.27;;;11.80;99.90;;;;;;5027282;28;20104;-67
2023/10/29 01:01:33;;;;;;;6.38;1.27;;;11.80;99.90;;;;;;5047058;28;20029;-67
2023/10/29 01:03:59;;;;;;;4.10;1.42;;;11.90;99.90;;;;;;5028793;28;20030;-66
2023/10/29 01:06:26;;;;;;;5.53;1.60;;;11.90;99.90;;;;;;5025967;28;20484;-66
2023/10/29 01:08:52;;;;;;;5.13;1.05;;;11.90;99.90;;;;;;5028837;28;20021;-67
2023/10/29 01:11:17;;;;;;;3.53;1.55;;;11.90;99.90;;;;;;5028232;28;20022;-66
2023/10/29 01:13:43;;;;;;;4.32;1.10;;;11.90;99.90;;;;;;5037322;28;20101;-68
2023/10/29 01:16:09;;;;;;;9.52;1.60;;;11.90;99.90;;;;;;5027735;28;20025;-67
2023/10/29 01:18:34;;;;;;;4.95;1.85;;;11.80;99.90;;;;;;5024935;28;20060;-66
2023/10/29 01:21:00;;;;;;;3.60;1.38;;;11.90;99.90;;;;;;5032960;28;20028;-67
2023/10/29 01:23:28;;;;;;;2.97;1.25;;;11.90;99.90;;;;;;5023879;28;20026;-67
2023/10/29 01:25:55;;;;;;;1.42;1.17;;;12.00;99.90;;;;;;5032987;28;20026;-67
2023/10/29 01:28:21;;;;;;;1.40;1.00;;;12.00;99.90;;;;;;5045435;28;20414;-67
2023/10/29 01:30:46;;;;;;;3.47;1.20;;;12.00;99.90;;;;;;5033163;28;20018;-67
2023/10/29 01:33:12;;;;;;;6.53;1.40;;;12.00;99.90;;;;;;5026907;28;20087;-66
2023/10/29 01:35:38;;;;;;;3.03;0.85;;;12.00;99.90;;;;;;5030736;28;20036;-67
2023/10/29 01:38:03;;;;;;;3.65;1.35;;;12.00;99.90;;;;;;5031371;28;20030;-66
2023/10/29 01:40:29;;;;;;;5.63;1.48;;;12.10;99.90;;;;;;5034083;28;20021;-67
2023/10/29 01:42:54;;;;;;;3.45;1.35;;;12.10;99.90;;;;;;5033510;28;20029;-66
2023/10/29 01:45:20;;;;;;;3.17;1.15;;;12.10;99.90;;;;;;5033735;28;20493;-67
2023/10/29 01:47:45;;;;;;;3.10;0.90;;;12.20;99.90;;;;;;5030349;28;20693;-67
2023/10/29 01:50:11;;;;;;;3.88;1.20;;;12.20;99.90;;;;;;5028781;28;20029;-66
2023/10/29 01:52:38;;;;;;;1.20;0.75;;;12.20;99.90;;;;;;5034147;28;20095;-67
2023/10/29 01:55:08;;;;;;;3.40;1.00;;;12.30;99.90;;;;;;5033123;28;20049;-66
2023/10/29 01:57:35;;;;;;;2.10;1.05;;;12.30;99.90;;;;;;5033272;28;20072;-66
2023/10/29 02:00:00;;;;;;;1.42;0.90;;;12.20;99.90;;;;;;5028500;28;20041;-66
2023/10/29 02:02:26;;;;;;;3.85;1.23;;;12.20;99.90;;;;;;5019452;28;20025;-66
2023/10/29 02:04:52;;;;;;;7.38;2.05;;;12.30;99.90;;;;;;5022090;28;20096;-66
2023/10/29 02:07:17;;;;;;;4.68;1.02;;;12.30;99.90;;;;;;5033707;28;20061;-66
2023/10/29 02:09:43;;;;;;;5.50;1.10;;;12.30;99.90;;;;;;5029355;28;20034;-66
2023/10/29 02:12:08;;;;;;;5.53;1.10;;;12.30;99.90;;;;;;5026864;28;20093;-66
2023/10/29 02:14:36;;;;;;;2.10;1.02;;;12.30;99.90;;;;;;5029803;28;20037;-67
2023/10/29 02:17:02;;;;;;;1.10;0.80;;;12.30;99.90;;;;;;5030464;28;20107;-67
2023/10/29 02:19:27;;;;;;;2.38;0.98;;;12.30;99.90;;;;;;5030031;28;20029;-67
2023/10/29 02:21:54;;;;;;;3.25;1.08;;;12.30;99.90;;;;;;5031877;28;20033;-68
2023/10/29 02:24:19;;;;;;;1.60;1.00;;;12.30;99.90;;;;;;5034483;28;20037;-67
2023/10/29 02:26:45;;;;;;;4.35;1.45;;;12.30;99.90;;;;;;5028216;28;20122;-67
2023/10/29 02:29:11;;;;;;;1.65;1.02;;;12.30;99.90;;;;;;5029861;28;20036;-67
2023/10/29 02:31:36;;;;;;;3.20;1.38;;;12.30;99.90;;;;;;5032236;28;20544;-67
2023/10/29 02:34:02;;;;;;;5.13;1.05;;;12.30;99.90;;;;;;5028666;28;20025;-67
2023/10/29 02:36:27;;;;;;;1.88;0.77;;;12.30;99.90;;;;;;5028028;28;20022;-67
2023/10/29 02:38:53;;;;;;;5.43;1.30;;;12.30;99.90;;;;;;5027059;28;20081;-67
2023/10/29 02:41:18;;;;;;;1.80;1.08;;;12.30;99.90;;;;;;5032438;28;20025;-67
2023/10/29 02:43:44;;;;;;;1.98;0.85;;;12.20;99.90;;;;;;5031537;28;20478;-67
2023/10/29 02:46:10;;;;;;;2.05;0.73;;;12.20;99.90;;;;;;5029266;28;20037;-67
2023/10/29 02:48:36;;;;;;;2.08;1.17;;;12.20;99.90;;;;;;5029714;28;20028;-66
2023/10/29 02:51:02;;;;;;;5.30;1.13;;;12.20;99.90;;;;;;5032933;28;20029;-67
2023/10/29 02:53:31;;;;;;;5.22;1.25;;;12.20;99.90;;;;;;5029189;28;20185;-66
2023/10/29 02:56:00;;;;;;;2.22;1.88;;;12.10;99.90;;;;;;5031886;28;20363;-66
2023/10/29 02:58:25;;;;;;;1.55;1.05;;;12.10;99.90;;;;;;5033134;28;20013;-67
2023/10/29 03:00:51;;;;;;;3.38;1.13;;;12.10;99.90;;;;;;5026788;28;20083;-66
2023/10/29 03:03:16;;;;;;;4.60;1.25;;;12.10;99.90;;;;;;5029373;28;20648;-67
2023/10/29 03:05:42;;;;;;;3.60;1.30;;;12.00;99.90;;;;;;5026125;28;20052;-68
2023/10/29 03:08:07;;;;;;;5.85;1.27;;;12.00;99.90;;;;;;5031748;28;20025;-67
2023/10/29 03:10:33;;;;;;;3.08;1.00;;;12.00;99.90;;;;;;5031676;28;20061;-67
2023/10/29 03:12:58;;;;;;;5.25;1.05;;;12.00;99.90;;;;;;5026477;28;20029;-66
2023/10/29 03:15:25;;;;;;;4.22;2.08;;;12.00;99.90;;;;;;5027265;28;20379;-67
2023/10/29 03:17:51;;;;;;;1.85;1.00;;;12.00;99.90;;;;;;5027521;28;20512;-67
2023/10/29 03:20:16;;;;;;;3.97;1.40;;;12.00;99.90;;;;;;5031841;28;20104;-66
2023/10/29 03:22:42;;;;;;;2.95;1.00;;;12.00;99.90;;;;;;5031977;28;20025;-67
2023/10/29 03:25:08;;;;;;;2.47;0.80;;;12.00;99.90;;;;;;5029563;28;20471;-67
2023/10/29 03:27:34;;;;;;;4.95;1.10;;;12.10;99.90;;;;;;5026600;28;20446;-67
2023/10/29 03:30:00;;;;;;;3.63;1.45;;;12.10;99.90;;;;;;5023802;28;20414;-66
2023/10/29 03:32:25;;;;;;;1.42;0.98;;;12.10;99.90;;;;;;5023665;28;20039;-67
2023/10/29 03:34:51;;;;;;;2.42;1.25;;;12.10;99.90;;;;;;5029999;28;20479;-66
2023/10/29 03:37:18;;;;;;;1.98;1.10;;;12.10;99.90;;;;;;5030113;28;20104;-66
2023/10/29 03:39:43;;;;;;;2.58;1.83;;;12.10;99.90;;;;;;5030310;28;20025;-66
2023/10/29 03:42:09;;;;;;;2.15;1.02;;;12.00;99.90;;;;;;5031693;28;20376;-66
2023/10/29 03:44:35;;;;;;;3.55;1.02;;;12.10;99.90;;;;;;5028041;28;20029;-67
2023/10/29 03:47:00;;;;;;;2.38;0.70;;;12.10;99.90;;;;;;5026468;28;20028;-67
2023/10/29 03:49:26;;;;;;;1.75;0.82;;;12.10;99.90;;;;;;5030340;28;20025;-67
2023/10/29 03:51:52;;;;;;;1.95;0.90;;;12.20;99.90;;;;;;5025253;28;20375;-66
2023/10/29 03:54:17;;;;;;;2.97;0.70;;;12.20;99.90;;;;;;5025143;28;20029;-67
2023/10/29 03:56:43;;;;;;;2.05;0.90;;;12.30;99.90;;;;;;5024367;28;20053;-66
2023/10/29 03:59:08;;;;;;;1.40;0.77;;;12.30;99.90;;;;;;5030212;28;20159;-66
2023/10/29 04:01:34;;;;;;;5.25;1.10;;;12.30;99.90;;;;;;5027037;28;20554;-67
2023/10/29 04:04:02;;;;;;;1.85;0.88;;;12.30;99.90;;;;;;5026991;28;20442;-67
2023/10/29 04:06:28;;;;;;;3.72;0.80;;;12.30;99.90;;;;;;5025442;28;20510;-66
2023/10/29 04:08:54;;;;;;;1.98;1.00;;;12.30;99.90;;;;;;5029170;28;20025;-67
2023/10/29 04:11:19;;;;;;;2.38;1.05;;;12.30;99.90;;;;;;5024717;28;20053;-67
2023/10/29 04:13:45;;;;;;;2.95;1.65;;;12.30;99.90;;;;;;5027213;28;20029;-68
2023/10/29 04:16:12;;;;;;;4.78;1.15;;;12.30;99.90;;;;;;5027923;28;20026;-67
2023/10/29 04:18:37;;;;;;;4.32;0.80;;;12.30;99.90;;;;;;5027243;28;20045;-67
2023/10/29 04:21:06;;;;;;;1.70;0.70;;;12.30;99.90;;;;;;5028090;28;20466;-67
2023/10/29 04:23:31;;;;;;;1.30;0.70;;;12.30;99.90;;;;;;5025486;28;20033;-67
2023/10/29 04:25:57;;;;;;;5.10;1.08;;;12.40;99.90;;;;;;5026478;28;20022;-66
2023/10/29 04:28:23;;;;;;;2.03;1.30;;;12.40;99.90;;;;;;5028840;28;20083;-67
2023/10/29 04:30:49;;;;;;;1.27;0.80;;;12.40;99.90;;;;;;5025899;28;20116;-66
2023/10/29 04:33:14;;;;;;;3.00;0.85;;;12.50;99.90;;;;;;5024741;28;20387;-66
2023/10/29 04:35:40;;;;;;;3.13;0.90;;;12.50;99.90;;;;;;5026362;28;20025;-66
2023/10/29 04:38:06;;;;;;;2.08;0.70;;;12.70;99.90;;;;;;5022530;28;20037;-67
2023/10/29 04:40:31;;;;;;;0.70;0.70;;;12.70;99.90;;;;;;5022885;28;20034;-66
2023/10/29 04:42:57;;;;;;;0.65;0.60;;;12.70;99.90;;;;;;5023994;28;20118;-66
2023/10/29 04:45:22;;;;;;;2.88;0.85;;;12.80;99.90;;;;;;5027373;28;20056;-67
2023/10/29 04:47:48;;;;;;;1.27;0.82;;;12.80;99.90;;;;;;5026479;28;20023;-66
2023/10/29 04:50:13;;;;;;;4.00;0.90;;;12.70;99.90;;;;;;5030612;28;20343;-66
2023/10/29 04:52:39;;;;;;;1.83;0.98;;;12.80;99.90;;;;;;5026712;28;20025;-66
2023/10/29 04:55:05;;;;;;;1.65;0.95;;;12.80;99.90;;;;;;5029242;28;20025;-66
2023/10/29 04:57:30;;;;;;;1.23;0.55;;;12.80;99.90;;;;;;5028442;28;20032;-66
2023/10/29 04:59:56;;;;;;;3.25;0.93;;;12.80;99.90;;;;;;5026604;28;20044;-66
2023/10/29 05:02:22;;;;;;;1.40;0.60;;;12.80;99.90;;;;;;5029170;28;20395;-66
2023/10/29 05:04:51;;;;;;;4.85;0.98;;;12.80;99.90;;;;;;5027953;28;20028;-66
2023/10/29 05:07:17;;;;;;;3.05;0.90;;;12.90;99.90;;;;;;5024057;28;20096;-66
2023/10/29 05:09:43;;;;;;;3.92;1.00;;;12.80;99.90;;;;;;5024398;28;20025;-67
2023/10/29 05:12:09;;;;;;;0.93;0.70;;;12.90;99.90;;;;;;5031001;28;20044;-67
2023/10/29 05:14:35;;;;;;;2.42;0.70;;;12.80;99.90;;;;;;5029355;28;20022;-67
2023/10/29 05:17:01;;;;;;;4.07;0.95;;;12.90;99.90;;;;;;5029616;28;20032;-67
2023/10/29 05:19:27;;;;;;;2.65;0.70;;;13.00;99.90;;;;;;5030936;28;20045;-67
2023/10/29 05:21:53;;;;;;;0.65;0.50;;;13.00;99.90;;;;;;5031072;28;20064;-67
2023/10/29 05:24:20;;;;;;;1.30;0.75;;;13.00;99.90;;;;;;5027075;28;20095;-67
2023/10/29 05:26:46;;;;;;;3.20;1.20;;;13.00;99.90;;;;;;5025892;28;20026;-67
2023/10/29 05:29:11;;;;;;;2.70;0.80;;;13.00;99.90;;;;;;5024195;28;20076;-67
2023/10/29 05:31:37;;;;;;;2.17;0.82;;;13.00;99.90;;;;;;5025863;28;20376;-67
2023/10/29 05:34:02;;;;;;;1.52;0.60;;;13.00;99.90;;;;;;5022877;28;20115;-66
2023/10/29 05:36:28;;;;;;;1.05;0.73;;;13.00;99.90;;;;;;5029735;28;20026;-66
2023/10/29 05:38:54;;;;;;;2.42;0.60;;;13.00;99.90;;;;;;5026616;28;20038;-67
2023/10/29 05:41:19;;;;;;;6.80;0.68;;;13.00;99.90;;;;;;5028440;28;20420;-67
2023/10/29 05:43:45;;;;;;;1.85;0.70;;;12.90;99.90;;;;;;5026489;28;20395;-65
2023/10/29 05:46:14;;;;;;;3.80;0.80;;;13.00;99.90;;;;;;5024376;28;20037;-66
2023/10/29 05:48:40;;;;;;;3.20;0.77;;;13.00;99.90;;;;;;5026584;28;20083;-67
2023/10/29 05:51:06;;;;;;;1.20;0.60;;;13.00;99.90;;;;;;5027661;28;20063;-67
2023/10/29 05:53:32;;;;;;;1.05;0.68;;;13.00;99.90;;;;;;5024872;28;20099;-66
2023/10/29 05:55:57;;;;;;;0.47;0.47;;;13.10;99.90;;;;;;5027331;28;20491;-66
2023/10/29 05:58:24;;;;;;;1.50;0.75;;;13.10;99.90;;;;;;5028392;28;20056;-66
2023/10/29 06:00:50;;;;;;;1.52;0.98;;;13.00;99.90;;;;;;5031288;28;20084;-67
2023/10/29 06:03:16;;;;;;;0.47;0.47;;;13.10;99.90;;;;;;5029219;28;20418;-67
2023/10/29 06:05:41;;;;;;;0.85;0.82;;;13.10;99.90;;;;;;5033653;28;20036;-67
2023/10/29 06:08:07;;;;;;;1.38;0.63;;;13.10;99.90;;;;;;5033041;28;20025;-67
2023/10/29 06:10:33;;;;;;;1.45;0.70;;;13.10;99.90;;;;;;5028094;28;20057;-67
2023/10/29 06:12:59;;;;;;;0.57;0.47;;;13.10;99.90;;;;;;5028478;28;20136;-67
2023/10/29 06:15:25;;;;;;;3.03;0.77;;;13.10;99.90;;;;;;5033123;28;20097;-68
2023/10/29 06:17:53;;;;;;;3.38;0.75;;;13.20;99.90;;;;;;5034017;28;20105;-67
2023/10/29 06:20:20;;;;;;;1.38;0.77;;;13.20;99.90;;;;;;5032770;28;20493;-67
2023/10/29 06:22:47;;;;;;;2.00;0.85;;;13.20;99.90;;;;;;5032192;28;20401;-67
2023/10/29 06:25:13;;;;;;;1.42;0.90;;;13.10;99.90;;;;;;5031368;28;20487;-68
2023/10/29 06:27:39;;;;;;;1.02;0.93;;;13.10;99.90;;;;;;5027813;28;20033;-66
2023/10/29 06:30:06;;;;;;;1.42;0.80;;;13.10;99.90;;;;;;5032629;28;20028;-67
2023/10/29 06:32:32;;;;;;;3.95;0.98;;;13.10;99.90;;;;;;5028382;28;20021;-67
2023/10/29 06:34:57;;;;;;;3.80;1.00;;;13.00;99.90;;;;;;5029817;28;20038;-68
2023/10/29 06:37:23;;;;;;;1.42;0.70;;;13.00;99.90;;;;;;5029141;28;20026;-67
2023/10/29 06:39:48;;;;;;;1.42;0.50;;;13.00;99.90;;;;;;5032445;28;20037;-66
2023/10/29 06:42:14;;;;;;;2.63;0.73;;;13.00;99.90;;;;;;5030377;28;20025;-67
2023/10/29 06:44:40;;;;;;;1.48;0.98;;;13.00;99.90;;;;;;5029323;28;20026;-66
2023/10/29 06:47:05;;;;;;;6.10;0.63;;;13.00;99.90;;;;;;5027634;28;20120;-67
2023/10/29 06:49:31;;;;;;;1.40;0.60;;;13.00;99.90;;;;;;5029793;28;20483;-66
2023/10/29 06:51:57;;;;;;;1.23;0.60;;;13.10;99.90;;;;;;5022528;28;20479;-67
2023/10/29 06:54:22;;;;;;;3.13;0.73;;;13.10;99.90;;;;;;5029866;28;20025;-67
2023/10/29 06:56:48;;;;;;;2.47;0.73;;;13.10;99.90;;;;;;5027881;28;20049;-68
2023/10/29 06:59:14;;;;;;;3.83;0.88;;;13.20;99.90;;;;;;5032401;28;20040;-68
2023/10/29 07:01:39;;;;;;;0.98;0.70;;;13.20;99.90;;;;;;5028778;28;20104;-67
2023/10/29 07:04:06;;;;;;;2.17;0.68;;;13.20;99.90;;;;;;5028581;28;20043;-68
2023/10/29 07:06:32;;;;;;;1.48;0.80;;;13.20;99.90;;;;;;5038440;28;20041;-67
2023/10/29 07:08:57;;;;;;;1.77;0.57;;;13.20;99.90;;;;;;5031712;28;20032;-67
2023/10/29 07:11:23;;;;;;;0.98;0.70;;;13.20;99.90;;;;;;5029177;28;20557;-67
2023/10/29 07:13:49;;;;;;;1.20;0.77;;;13.20;99.90;;;;;;5030615;28;20100;-67
2023/10/29 07:16:16;;;;;;;0.95;0.60;;;13.10;99.90;;;;;;5028630;28;20025;-68
2023/10/29 07:18:42;;;;;;;4.45;0.75;;;13.20;99.90;;;;;;5029683;28;20060;-67
2023/10/29 07:21:08;;;;;;;2.22;0.80;;;13.20;99.90;;;;;;5031181;28;20057;-66
2023/10/29 07:23:33;;;;;;;5.07;1.00;;;13.20;99.90;;;;;;5029811;28;20072;-66
2023/10/29 07:25:59;;;;;;;2.40;0.68;;;13.20;99.90;;;;;;5029144;28;20036;-66
2023/10/29 07:28:25;;;;;;;4.00;0.75;;;13.30;99.90;;;;;;5027768;28;20515;-66
2023/10/29 07:30:50;;;;;;;0.98;0.50;;;13.40;99.90;;;;;;5028231;28;20399;-67
2023/10/29 07:33:16;;;;;;;2.60;0.80;;;13.40;99.90;;;;;;5030627;28;20435;-68
2023/10/29 07:35:41;;;;;;;1.45;0.70;;;13.40;99.90;;;;;;5030414;28;21530;-66
2023/10/29 07:38:07;;;;;;;1.17;0.77;;;13.50;99.90;;;;;;5030407;28;20122;-66
2023/10/29 07:40:33;;;;;;;2.00;0.60;;;13.50;99.90;;;;;;5029121;28;20037;-66
2023/10/29 07:42:59;;;;;;;0.80;0.45;;;13.50;99.90;;;;;;5028870;28;20090;-66
2023/10/29 07:45:24;;;;;;;1.45;0.60;;;13.60;99.90;;;;;;5030062;28;20026;-66
2023/10/29 07:47:50;;;;;;;2.35;0.80;;;13.60;99.90;;;;;;5038887;28;20029;-66
2023/10/29 07:50:16;;;;;;;1.05;0.50;;;13.70;99.90;;;;;;5027323;28;20094;-66
2023/10/29 07:52:42;;;;;;;0.60;0.45;;;13.70;99.90;;;;;;5028796;28;20025;-66
2023/10/29 07:55:11;;;;;;;4.38;0.77;;;13.80;99.90;;;;;;5029937;28;20033;-67
2023/10/29 07:57:38;;;;;;;2.50;0.77;;;13.80;99.90;;;;;;5032875;28;20569;-66
2023/10/29 08:00:07;;;;;;;1.23;0.55;;;13.70;99.90;;;;;;5029860;28;20029;-67
2023/10/29 08:02:32;;;;;;;0.90;0.32;;;13.70;99.90;;;;;;5028677;28;20486;-66
2023/10/29 08:04:59;;;;;;;2.60;0.90;;;13.70;99.90;;;;;;5028923;28;20032;-66
2023/10/29 08:07:24;;;;;;;2.20;0.47;;;13.80;99.90;;;;;;5018383;28;20033;-66
2023/10/29 08:09:50;;;;;;;1.35;0.90;;;13.80;99.90;;;;;;5016239;28;20033;-67
2023/10/29 08:12:15;;;;;;;1.20;0.60;;;13.90;99.90;;;;;;5018410;28;20112;-67
2023/10/29 08:14:41;;;;;;;1.30;1.15;;;14.00;99.90;;;;;;5019007;28;20486;-68
2023/10/29 08:17:07;;;;;;;1.20;0.65;;;14.20;99.90;;;;;;5014681;28;20037;-67
2023/10/29 08:19:32;;;;;;;1.17;0.50;;;14.50;99.90;;;;;;5018293;28;20120;-71
2023/10/29 08:21:58;;;;;;;0.63;0.63;;;14.80;99.90;;;;;;5017807;28;20038;-67
2023/10/29 08:24:23;;;;;;;2.10;0.63;;;14.90;99.90;;;;;;5018206;28;20960;-66
2023/10/29 08:26:49;;;;;;;1.05;0.40;;;14.90;99.90;;;;;;5014262;28;20126;-67
2023/10/29 08:29:15;;;;;;;2.50;0.60;;;15.10;99.90;;;;;;5015534;28;20032;-66
2023/10/29 08:31:41;;;;;;;2.20;0.60;;;15.00;99.90;;;;;;5017939;28;20025;-66
2023/10/29 08:34:07;;;;;;;1.65;0.80;;;15.10;99.90;;;;;;5018264;28;20022;-67
2023/10/29 08:36:32;;;;;;;2.08;1.00;;;15.10;99.90;;;;;;5017685;28;20053;-67
2023/10/29 08:38:58;;;;;;;1.75;0.60;;;15.00;99.90;;;;;;5031501;28;20052;-67
2023/10/29 08:41:23;;;;;;;1.80;0.55;;;15.10;99.90;;;;;;5014877;28;20029;-67
2023/10/29 08:43:49;;;;;;;1.95;0.70;;;15.10;99.90;;;;;;5014125;28;20026;-66
2023/10/29 08:46:14;;;;;;;6.13;1.00;;;15.00;99.90;;;;;;5016942;28;20030;-67
2023/10/29 08:48:40;;;;;;;3.20;0.70;;;15.00;99.90;;;;;;5016648;28;20610;-66
2023/10/29 08:51:07;;;;;;;2.83;0.60;;;15.00;99.90;;;;;;5018227;28;20566;-66
2023/10/29 08:53:33;;;;;;;1.90;0.90;;;15.10;99.90;;;;;;5015501;28;20384;-67
2023/10/29 08:55:59;;;;;;;2.72;1.05;;;15.10;99.90;;;;;;5014556;28;20029;-66
2023/10/29 08:58:24;;;;;;;2.92;1.50;;;15.10;99.90;;;;;;5015793;28;20044;-67
2023/10/29 09:00:52;;;;;;;0.80;0.60;;;15.00;99.90;;;;;;5016191;28;20033;-66
2023/10/29 09:03:18;;;;;;;4.53;0.68;;;14.90;99.90;;;;;;5015921;28;20034;-66
2023/10/29 09:05:46;;;;;;;0.60;0.32;;;14.80;99.90;;;;;;5016533;28;20473;-66
2023/10/29 09:08:12;;;;;;;1.35;0.65;;;14.80;99.90;;;;;;5017031;28;20025;-66
2023/10/29 09:10:42;;;;;;;1.27;0.77;;;14.70;99.90;;;;;;5014224;28;20096;-67
2023/10/29 09:13:07;;;;;;;3.58;0.90;;;14.60;99.90;;;;;;5017764;28;20029;-66
2023/10/29 09:15:33;;;;;;;2.60;0.80;;;14.60;99.90;;;;;;5015334;28;20026;-66
2023/10/29 09:17:58;;;;;;;2.95;1.02;;;14.50;99.90;;;;;;5017293;28;20028;-68
2023/10/29 09:20:24;;;;;;;4.43;1.73;;;14.50;99.90;;;;;;5014632;28;20479;-66
2023/10/29 09:22:49;;;;;;;3.60;0.50;;;14.50;99.90;;;;;;5015925;28;20085;-66
2023/10/29 09:25:15;;;;;;;2.42;0.70;;;14.50;99.90;;;;;;5015863;28;20037;-66
2023/10/29 09:27:41;;;;;;;3.42;0.70;;;14.40;99.90;;;;;;5015241;28;21137;-66
2023/10/29 09:30:08;;;;;;;7.97;1.58;;;14.50;99.90;;;;;;5014660;28;20029;-66
2023/10/29 09:32:37;;;;;;;2.22;0.95;;;14.60;99.90;;;;;;5020848;28;20057;-66
2023/10/29 09:35:05;;;;;;;6.38;2.08;;;14.70;99.90;;;;;;5019670;28;20033;-66
2023/10/29 09:37:34;;;;;;;21.05;10.07;;;14.80;99.90;;;;;;5021098;28;20112;-66
2023/10/29 09:40:01;;;;;;;9.02;5.15;;;14.90;99.90;;;;;;5037492;28;20040;-66
2023/10/29 09:42:29;;;;;;;3.63;1.73;;;15.00;99.90;;;;;;5034145;28;20021;-67
2023/10/29 09:45:00;;;;;;;3.42;1.15;;;15.10;99.90;;;;;;5018863;28;21033;-66
2023/10/29 09:47:27;;;;;;;0.75;0.60;;;15.10;99.90;;;;;;5016553;28;20454;-67
2023/10/29 09:49:56;;;;;;;2.30;0.85;;;15.00;99.90;;;;;;5019807;28;20025;-67
2023/10/29 09:52:33;;;;;;;3.72;2.03;;;14.90;99.90;;;;;;5019461;28;20060;-66
2023/10/29 09:55:00;;;;;;;2.05;1.35;;;14.80;99.90;;;;;;5019720;28;20025;-66
2023/10/29 09:57:27;;;;;;;1.90;1.00;;;14.60;99.90;;;;;;5019325;28;20033;-67
2023/10/29 09:59:52;;;;;;;4.88;1.30;;;14.50;99.90;;;;;;5020087;28;20037;-67
2023/10/29 10:02:19;;;;;;;5.55;1.50;;;14.40;99.90;;;;;;5018753;28;20403;-66
2023/10/29 10:04:47;;;;;;;11.93;6.20;;;14.40;99.90;;;;;;5019912;28;20038;-66
2023/10/29 10:07:14;;;;;;;4.78;2.15;;;14.60;99.90;;;;;;5018131;28;20033;-67
2023/10/29 10:09:54;;;;;;;3.65;2.20;;;14.60;99.90;;;;;;5016513;28;20391;-67
2023/10/29 10:12:20;;;;;;;18.33;6.68;;;14.60;99.90;;;;;;5018220;28;20033;-67
2023/10/29 10:14:46;;;;;;;3.92;2.20;;;14.60;99.90;;;;;;5023076;28;20101;-67
2023/10/29 10:17:12;;;;;;;2.33;1.00;;;14.50;99.90;;;;;;5019514;28;20072;-66
2023/10/29 10:19:39;;;;;;;6.93;1.52;;;14.40;99.90;;;;;;5019485;28;20431;-66
2023/10/29 10:22:05;;;;;;;3.95;1.05;;;14.40;99.90;;;;;;5019536;28;20029;-67
2023/10/29 10:24:38;;;;;;;8.80;1.10;;;14.30;99.90;;;;;;5019267;28;20454;-66
2023/10/29 10:27:05;;;;;;;3.03;0.68;;;14.20;99.90;;;;;;5017471;28;20044;-67
2023/10/29 10:29:34;;;;;;;2.30;1.00;;;14.20;99.90;;;;;;5018534;28;20143;-66
2023/10/29 10:32:04;;;;;;;4.38;0.85;;;14.20;99.90;;;;;;5019285;28;20119;-67
2023/10/29 10:34:31;;;;;;;2.70;1.05;;;14.20;99.90;;;;;;5019428;28;20096;-66
2023/10/29 10:37:02;;;;;;;1.65;0.75;;;14.30;99.90;;;;;;5019113;28;20038;-66
2023/10/29 10:39:29;;;;;;;2.85;1.13;;;14.30;99.90;;;;;;5020752;28;20084;-68
2023/10/29 10:41:55;;;;;;;4.70;1.00;;;14.30;99.90;;;;;;5017343;28;20037;-66
2023/10/29 10:44:22;;;;;;;2.92;1.15;;;14.30;99.90;;;;;;5015959;28;20694;-67
2023/10/29 10:46:51;;;;;;;1.73;1.10;;;14.40;99.90;;;;;;5018413;28;20057;-67
2023/10/29 10:49:18;;;;;;;3.25;1.00;;;14.50;99.90;;;;;;5019277;28;20519;-66
2023/10/29 10:51:47;;;;;;;5.28;2.72;;;14.60;99.90;;;;;;5021050;28;20029;-66
2023/10/29 10:54:16;;;;;;;1.58;0.80;;;14.60;99.90;;;;;;5019938;28;20018;-67
2023/10/29 10:56:43;;;;;;;2.83;1.25;;;14.60;99.90;;;;;;5020652;28;20029;-66
2023/10/29 10:59:09;;;;;;;4.05;2.25;;;14.60;99.90;;;;;;5018315;28;20029;-67
2023/10/29 11:01:37;;;;;;;8.43;1.88;;;14.80;99.90;;;;;;5018513;28;20036;-66
2023/10/29 11:04:04;;;;;;;2.65;1.25;;;14.80;99.90;;;;;;5019401;28;20052;-67
2023/10/29 11:06:31;;;;;;;3.30;1.27;;;14.80;99.90;;;;;;5017441;28;20037;-66
2023/10/29 11:09:01;;;;;;;4.85;1.38;;;14.70;99.90;;;;;;5017027;28;20025;-66
2023/10/29 11:11:31;;;;;;;2.42;1.02;;;14.60;99.90;;;;;;5016967;28;20036;-66
2023/10/29 11:14:14;;;;;;;0.95;0.60;;;14.60;99.90;;;;;;5015065;28;20554;-65
2023/10/29 11:16:47;;;;;;;3.60;1.10;;;14.60;99.90;;;;;;5015208;28;20034;-67
2023/10/29 11:19:35;;;;;;;2.38;0.80;;;14.60;99.90;;;;;;5018635;28;20078;-67
2023/10/29 11:22:20;;;;;;;3.38;1.75;;;14.60;99.90;;;;;;5018347;28;20054;-67
2023/10/29 11:25:04;;;;;;;3.00;0.80;;;14.50;99.90;;;;;;5020012;28;20045;-67
2023/10/29 11:27:47;;;;;;;7.28;1.98;;;14.40;99.90;;;;;;5017615;28;20112;-67
2023/10/29 11:30:21;;;;;;;1.90;1.30;;;14.40;99.90;;;;;;5018556;28;20018;-66
2023/10/29 11:33:06;;;;;;;;;;;14.30;99.90;;;;;;5019949;28;20037;-68
2023/10/29 11:35:33;;;;;;;4.80;0.80;;;14.30;99.90;;;;;;5018348;28;19937;-66
2023/10/29 11:38:01;;;;;;;1.55;0.98;;;14.30;99.90;;;;;;5017799;28;20033;-67
2023/10/29 11:40:34;;;;;;;6.28;2.13;;;14.30;99.90;;;;;;5019615;28;20022;-67
2023/10/29 11:43:15;;;;;;;2.08;1.33;;;14.30;99.90;;;;;;5017499;28;20025;-68
2023/10/29 11:45:41;;;;;;;4.25;2.42;;;14.30;99.90;;;;;;5015397;28;20033;-68
2023/10/29 11:48:07;;;;;;;1.90;1.50;;;14.30;99.90;;;;;;5014260;28;20026;-67
2023/10/29 11:50:33;;;;;;;2.42;1.27;;;14.40;99.90;;;;;;5018378;28;20034;-67
2023/10/29 11:52:59;;;;;;;2.88;1.10;;;14.50;99.90;;;;;;5017413;28;20022;-66
2023/10/29 11:55:29;;;;;;;4.43;2.00;;;14.60;99.90;;;;;;5018697;28;20522;-66
2023/10/29 11:57:56;;;;;;;5.78;2.80;;;14.70;99.90;;;;;;5017251;28;20036;-67
2023/10/29 12:00:22;;;;;;;8.05;2.95;;;14.70;99.90;;;;;;5014964;28;20034;-67
2023/10/29 12:02:48;;;;;;;3.50;1.48;;;14.70;99.90;;;;;;5020314;28;20540;-66
2023/10/29 12:05:17;;;;;;;6.70;3.35;;;14.60;99.90;;;;;;5015704;28;20029;-67
2023/10/29 12:07:43;;;;;;;5.40;2.33;;;14.50;99.90;;;;;;5021246;28;20033;-66
2023/10/29 12:10:10;;;;;;;4.35;1.40;;;14.50;99.90;;;;;;5017300;28;20613;-66
2023/10/29 12:12:35;;;;;;;12.38;4.18;;;14.30;99.90;;;;;;5018138;28;20157;-66
2023/10/29 12:15:02;;;;;;;12.73;5.75;;;14.30;99.90;;;;;;5016807;28;20034;-67
2023/10/29 12:17:28;;;;;;;1.75;1.10;;;14.20;99.90;;;;;;5015991;28;20025;-67
2023/10/29 12:19:54;;;;;;;3.60;1.52;;;14.20;99.90;;;;;;5016852;28;20084;-66
2023/10/29 12:22:27;;;;;;;3.53;1.23;;;14.20;99.90;;;;;;5016688;28;20450;-69
2023/10/29 12:25:00;;;;;;;7.05;2.53;;;14.20;99.90;;;;;;5019117;28;20162;-66
2023/10/29 12:27:30;;;;;;;1.90;1.35;;;14.20;99.90;;;;;;5014191;28;20030;-66
2023/10/29 12:29:56;;;;;;;2.90;1.35;;;14.10;99.90;;;;;;5014651;28;20032;-66
2023/10/29 12:32:25;;;;;;;4.50;1.20;;;14.10;99.90;;;;;;5014845;28;20443;-67
2023/10/29 12:34:56;;;;;;;5.05;1.48;;;14.00;99.90;;;;;;5017879;28;20049;-66
2023/10/29 12:37:28;;;;;;;4.88;1.30;;;14.00;99.90;;;;;;5016463;28;20029;-66
2023/10/29 12:39:56;;;;;;;1.33;0.77;;;14.00;99.90;;;;;;5017824;28;20052;-65
2023/10/29 12:42:52;;;;;;;7.05;2.05;;;14.10;99.90;;;;;;5015851;28;20068;-66
2023/10/29 12:45:24;;;;;;;3.58;1.40;;;14.20;99.90;;;;;;5016586;28;20124;-66